sensor_id;sensor_type;location;lat;lon;timestamp;temperature;humidity
6556;DHT22;3311;48.32423000;14.29074500;2022-11-28T07:18:50;7.80;59.70
6556;DHT22;3311;48.32423000;14.29074500;2022-11-28T07:21:18;7.80;59.80
6556;DHT22;3311;48.32423000;14.29074500;2022-11-28T07:23:46;8.00;59.80
6556;DHT22;3311;48.32423000;14.29074500;2022-11-28T07:26:17;8.00;59.40
6556;DHT22;3311;48.32423000;14.29074500;2022-11-28T07:28:45;8.00;59.70
6556;DHT22;3311;48.32423000;14.29074500;2022-11-28T07:31:14;7.90;60.00
6556;DHT22;3311;48.32423000;14.29074500;2022-11-28T07:33:43;8.00;60.10
6556;DHT22;3311;48.32423000;14.29074500;2022-11-28T07:36:17;8.10;59.80
6556;DHT22;3311;48.32423000;14.29074500;2022-11-28T07:38:46;8.20;59.70
6556;DHT22;3311;48.32423000;14.29074500;2022-11-28T07:41:14;8.30;59.40
6556;DHT22;3311;48.32423000;14.29074500;2022-11-28T07:43:42;8.50;59.00
6556;DHT22;3311;48.32423000;14.29074500;2022-11-28T07:46:11;8.40;58.90
6556;DHT22;3311;48.32423000;14.29074500;2022-11-28T07:48:38;8.40;59.10
6556;DHT22;3311;48.32423000;14.29074500;2022-11-28T07:51:07;8.30;59.50
6556;DHT22;3311;48.32423000;14.29074500;2022-11-28T07:53:36;8.10;60.00
6556;DHT22;3311;48.32423000;14.29074500;2022-11-28T07:56:05;8.20;61.10
6556;DHT22;3311;48.32423000;14.29074500;2022-11-28T07:58:33;8.40;60.10
6556;DHT22;3311;48.32423000;14.29074500;2022-11-28T08:01:08;8.40;59.90
6556;DHT22;3311;48.32423000;14.29074500;2022-11-28T08:03:36;8.30;60.30
6556;DHT22;3311;48.32423000;14.29074500;2022-11-28T08:06:04;8.20;60.80
6556;DHT22;3311;48.32423000;14.29074500;2022-11-28T08:08:32;8.20;61.30
6556;DHT22;3311;48.32423000;14.29074500;2022-11-28T08:11:02;8.20;61.50
6556;DHT22;3311;48.32423000;14.29074500;2022-11-28T08:13:30;8.40;61.60
6556;DHT22;3311;48.32423000;14.29074500;2022-11-28T08:15:57;8.20;62.00
6556;DHT22;3311;48.32423000;14.29074500;2022-11-28T08:18:24;8.30;61.60
6556;DHT22;3311;48.32423000;14.29074500;2022-11-28T08:20:52;8.30;61.90
6556;DHT22;3311;48.32423000;14.29074500;2022-11-28T08:23:19;8.40;61.70
6556;DHT22;3311;48.32423000;14.29074500;2022-11-28T08:25:46;8.50;61.50
6556;DHT22;3311;48.32423000;14.29074500;2022-11-28T08:28:14;8.50;61.60
6556;DHT22;3311;48.32423000;14.29074500;2022-11-28T08:30:41;8.50;61.50
6556;DHT22;3311;48.32423000;14.29074500;2022-11-28T08:33:09;8.50;62.40
6556;DHT22;3311;48.32423000;14.29074500;2022-11-28T08:35:38;8.50;61.60
6556;DHT22;3311;48.32423000;14.29074500;2022-11-28T08:38:05;8.50;62.00
6556;DHT22;3311;48.32423000;14.29074500;2022-11-28T08:40:32;8.50;61.90
6556;DHT22;3311;48.32423000;14.29074500;2022-11-28T08:43:00;8.50;62.10
6556;DHT22;3311;48.32423000;14.29074500;2022-11-28T08:45:28;8.50;62.40
6556;DHT22;3311;48.32423000;14.29074500;2022-11-28T08:47:57;8.50;62.60
6556;DHT22;3311;48.32423000;14.29074500;2022-11-28T08:50:24;8.50;62.20
6556;DHT22;3311;48.32423000;14.29074500;2022-11-28T08:52:52;8.50;62.50
6556;DHT22;3311;48.32423000;14.29074500;2022-11-28T08:55:19;8.60;62.40
6556;DHT22;3311;48.32423000;14.29074500;2022-11-28T08:57:46;8.60;62.10
6556;DHT22;3311;48.32423000;14.29074500;2022-11-28T09:00:15;8.60;62.10
6556;DHT22;3311;48.32423000;14.29074500;2022-11-28T09:02:44;8.70;62.10
6556;DHT22;3311;48.32423000;14.29074500;2022-11-28T09:05:11;8.70;62.00
6556;DHT22;3311;48.32423000;14.29074500;2022-11-28T09:07:38;8.80;62.00
6556;DHT22;3311;48.32423000;14.29074500;2022-11-28T09:10:06;8.90;61.40
6556;DHT22;3311;48.32423000;14.29074500;2022-11-28T09:12:34;8.80;61.50
6556;DHT22;3311;48.32423000;14.29074500;2022-11-28T09:15:01;8.80;61.60
6556;DHT22;3311;48.32423000;14.29074500;2022-11-28T09:17:28;8.90;61.60
6556;DHT22;3311;48.32423000;14.29074500;2022-11-28T09:19:57;8.90;62.10
6556;DHT22;3311;48.32423000;14.29074500;2022-11-28T09:22:24;9.00;61.70
6556;DHT22;3311;48.32423000;14.29074500;2022-11-28T09:24:51;9.00;61.40
6556;DHT22;3311;48.32423000;14.29074500;2022-11-28T09:27:18;9.10;61.70
6556;DHT22;3311;48.32423000;14.29074500;2022-11-28T09:29:45;9.10;61.30
6556;DHT22;3311;48.32423000;14.29074500;2022-11-28T09:32:13;9.20;61.40
6556;DHT22;3311;48.32423000;14.29074500;2022-11-28T09:34:40;9.30;61.20
6556;DHT22;3311;48.32423000;14.29074500;2022-11-28T09:37:08;9.50;60.80
6556;DHT22;3311;48.32423000;14.29074500;2022-11-28T09:39:35;9.40;60.70
6556;DHT22;3311;48.32423000;14.29074500;2022-11-28T09:42:09;9.30;61.00
6556;DHT22;3311;48.32423000;14.29074500;2022-11-28T09:44:42;9.40;60.80
6556;DHT22;3311;48.32423000;14.29074500;2022-11-28T09:47:16;9.40;61.20
6556;DHT22;3311;48.32423000;14.29074500;2022-11-28T09:49:48;9.40;60.50
6556;DHT22;3311;48.32423000;14.29074500;2022-11-28T09:52:26;9.40;60.70
6556;DHT22;3311;48.32423000;14.29074500;2022-11-28T09:55:03;9.50;60.60
6556;DHT22;3311;48.32423000;14.29074500;2022-11-28T09:57:36;9.60;60.20
6556;DHT22;3311;48.32423000;14.29074500;2022-11-28T10:00:12;9.60;59.90
6556;DHT22;3311;48.32423000;14.29074500;2022-11-28T10:02:58;9.70;59.70
6556;DHT22;3311;48.32423000;14.29074500;2022-11-28T10:05:36;9.60;59.50
6556;DHT22;3311;48.32423000;14.29074500;2022-11-28T10:08:21;9.60;59.80
6556;DHT22;3311;48.32423000;14.29074500;2022-11-28T10:10:57;9.60;59.90
6556;DHT22;3311;48.32423000;14.29074500;2022-11-28T10:13:35;9.60;59.80
6556;DHT22;3311;48.32423000;14.29074500;2022-11-28T10:16:09;9.60;59.80
6556;DHT22;3311;48.32423000;14.29074500;2022-11-28T10:18:42;9.70;59.60
6556;DHT22;3311;48.32423000;14.29074500;2022-11-28T10:21:23;9.80;59.30
6556;DHT22;3311;48.32423000;14.29074500;2022-11-28T10:23:56;9.70;59.40
6556;DHT22;3311;48.32423000;14.29074500;2022-11-28T10:26:30;9.70;59.20
6556;DHT22;3311;48.32423000;14.29074500;2022-11-28T10:29:03;9.70;59.20
6556;DHT22;3311;48.32423000;14.29074500;2022-11-28T10:31:35;9.80;59.20
6556;DHT22;3311;48.32423000;14.29074500;2022-11-28T10:34:07;9.90;59.20
6556;DHT22;3311;48.32423000;14.29074500;2022-11-28T10:36:49;9.90;58.90
6556;DHT22;3311;48.32423000;14.29074500;2022-11-28T10:39:19;10.10;57.70
6556;DHT22;3311;48.32423000;14.29074500;2022-11-28T10:41:53;10.10;57.60
6556;DHT22;3311;48.32423000;14.29074500;2022-11-28T10:44:49;10.00;57.50
6556;DHT22;3311;48.32423000;14.29074500;2022-11-28T10:47:22;10.20;57.60
6556;DHT22;3311;48.32423000;14.29074500;2022-11-28T10:50:01;10.20;57.60
6556;DHT22;3311;48.32423000;14.29074500;2022-11-28T10:52:34;10.10;58.00
6556;DHT22;3311;48.32423000;14.29074500;2022-11-28T10:55:19;10.00;58.20
6556;DHT22;3311;48.32423000;14.29074500;2022-11-28T10:57:54;10.20;58.40
6556;DHT22;3311;48.32423000;14.29074500;2022-11-28T11:00:24;10.20;58.20
6556;DHT22;3311;48.32423000;14.29074500;2022-11-28T11:02:52;10.30;57.80
6556;DHT22;3311;48.32423000;14.29074500;2022-11-28T11:05:24;10.20;57.90
6556;DHT22;3311;48.32423000;14.29074500;2022-11-28T11:07:54;10.20;58.10
6556;DHT22;3311;48.32423000;14.29074500;2022-11-28T11:10:25;10.20;58.00
6556;DHT22;3311;48.32423000;14.29074500;2022-11-28T11:12:54;10.20;58.10
6556;DHT22;3311;48.32423000;14.29074500;2022-11-28T11:15:27;10.10;58.10
6556;DHT22;3311;48.32423000;14.29074500;2022-11-28T11:17:57;10.20;58.00
6556;DHT22;3311;48.32423000;14.29074500;2022-11-28T11:20:32;10.30;57.80
6556;DHT22;3311;48.32423000;14.29074500;2022-11-28T11:23:04;10.10;57.80
6556;DHT22;3311;48.32423000;14.29074500;2022-11-28T11:25:51;10.10;58.10
6556;DHT22;3311;48.32423000;14.29074500;2022-11-28T11:28:31;10.10;58.20
6556;DHT22;3311;48.32423000;14.29074500;2022-11-28T11:31:02;10.10;58.20
6556;DHT22;3311;48.32423000;14.29074500;2022-11-28T11:33:33;10.10;58.10
6556;DHT22;3311;48.32423000;14.29074500;2022-11-28T11:36:02;10.10;58.20
6556;DHT22;3311;48.32423000;14.29074500;2022-11-28T11:38:33;10.20;58.30
6556;DHT22;3311;48.32423000;14.29074500;2022-11-28T11:41:25;10.30;58.00
6556;DHT22;3311;48.32423000;14.29074500;2022-11-28T11:43:53;10.40;57.60
6556;DHT22;3311;48.32423000;14.29074500;2022-11-28T11:46:21;10.40;57.50
6556;DHT22;3311;48.32423000;14.29074500;2022-11-28T11:48:51;10.40;57.60
6556;DHT22;3311;48.32423000;14.29074500;2022-11-28T11:51:23;10.40;57.80
6556;DHT22;3311;48.32423000;14.29074500;2022-11-28T11:54:02;10.50;57.60
6556;DHT22;3311;48.32423000;14.29074500;2022-11-28T11:56:35;10.40;57.60
6556;DHT22;3311;48.32423000;14.29074500;2022-11-28T11:59:11;10.30;57.90
6556;DHT22;3311;48.32423000;14.29074500;2022-11-28T12:01:41;10.10;57.70
6556;DHT22;3311;48.32423000;14.29074500;2022-11-28T12:04:16;10.20;57.90
6556;DHT22;3311;48.32423000;14.29074500;2022-11-28T12:06:49;10.20;58.00
6556;DHT22;3311;48.32423000;14.29074500;2022-11-28T12:09:26;10.10;57.80
6556;DHT22;3311;48.32423000;14.29074500;2022-11-28T12:11:59;10.20;57.90
6556;DHT22;3311;48.32423000;14.29074500;2022-11-28T12:14:30;10.20;57.80
6556;DHT22;3311;48.32423000;14.29074500;2022-11-28T12:17:21;10.30;57.70
6556;DHT22;3311;48.32423000;14.29074500;2022-11-28T12:20:02;10.20;57.40
6556;DHT22;3311;48.32423000;14.29074500;2022-11-28T12:22:41;10.10;57.70
6556;DHT22;3311;48.32423000;14.29074500;2022-11-28T12:25:14;10.20;57.70
6556;DHT22;3311;48.32423000;14.29074500;2022-11-28T12:27:58;10.20;57.70
6556;DHT22;3311;48.32423000;14.29074500;2022-11-28T12:30:39;10.20;57.70
6556;DHT22;3311;48.32423000;14.29074500;2022-11-28T12:33:30;10.20;57.60
6556;DHT22;3311;48.32423000;14.29074500;2022-11-28T12:36:08;10.20;57.80
6556;DHT22;3311;48.32423000;14.29074500;2022-11-28T12:38:47;10.10;57.70
6556;DHT22;3311;48.32423000;14.29074500;2022-11-28T12:41:34;10.20;57.80
6556;DHT22;3311;48.32423000;14.29074500;2022-11-28T12:44:18;10.10;57.90
6556;DHT22;3311;48.32423000;14.29074500;2022-11-28T12:46:52;10.30;57.90
6556;DHT22;3311;48.32423000;14.29074500;2022-11-28T12:49:31;10.30;58.00
6556;DHT22;3311;48.32423000;14.29074500;2022-11-28T12:52:08;10.30;57.90
6556;DHT22;3311;48.32423000;14.29074500;2022-11-28T12:54:51;10.30;58.00
6556;DHT22;3311;48.32423000;14.29074500;2022-11-28T12:57:31;10.30;58.00
6556;DHT22;3311;48.32423000;14.29074500;2022-11-28T13:00:07;10.30;58.00
6556;DHT22;3311;48.32423000;14.29074500;2022-11-28T13:02:48;10.30;57.80
6556;DHT22;3311;48.32423000;14.29074500;2022-11-28T13:05:29;10.30;58.00
6556;DHT22;3311;48.32423000;14.29074500;2022-11-28T13:11:16;10.20;58.20
6556;DHT22;3311;48.32423000;14.29074500;2022-11-28T13:13:49;10.20;58.20
6556;DHT22;3311;48.32423000;14.29074500;2022-11-28T13:16:23;10.10;58.30
6556;DHT22;3311;48.32423000;14.29074500;2022-11-28T13:18:59;10.10;58.40
6556;DHT22;3311;48.32423000;14.29074500;2022-11-28T13:21:35;10.20;58.50
6556;DHT22;3311;48.32423000;14.29074500;2022-11-28T13:24:20;10.20;58.60
6556;DHT22;3311;48.32423000;14.29074500;2022-11-28T13:26:52;10.20;58.60
6556;DHT22;3311;48.32423000;14.29074500;2022-11-28T13:29:29;10.20;58.40
6556;DHT22;3311;48.32423000;14.29074500;2022-11-28T13:32:06;10.20;58.30
6556;DHT22;3311;48.32423000;14.29074500;2022-11-28T13:34:38;10.20;58.20
6556;DHT22;3311;48.32423000;14.29074500;2022-11-28T13:37:11;10.20;58.40
6556;DHT22;3311;48.32423000;14.29074500;2022-11-28T13:39:46;10.20;58.40
6556;DHT22;3311;48.32423000;14.29074500;2022-11-28T13:42:25;10.20;58.30
6556;DHT22;3311;48.32423000;14.29074500;2022-11-28T13:44:59;10.20;58.50
6556;DHT22;3311;48.32423000;14.29074500;2022-11-28T13:47:31;10.30;58.50
6556;DHT22;3311;48.32423000;14.29074500;2022-11-28T13:53:02;10.40;58.40
6556;DHT22;3311;48.32423000;14.29074500;2022-11-28T13:55:40;10.40;58.30
6556;DHT22;3311;48.32423000;14.29074500;2022-11-28T13:58:22;10.40;58.30
6556;DHT22;3311;48.32423000;14.29074500;2022-11-28T14:01:06;10.30;58.40
6556;DHT22;3311;48.32423000;14.29074500;2022-11-28T14:03:45;10.30;58.50
6556;DHT22;3311;48.32423000;14.29074500;2022-11-28T14:06:17;10.20;58.80
6556;DHT22;3311;48.32423000;14.29074500;2022-11-28T14:08:47;10.20;59.10
6556;DHT22;3311;48.32423000;14.29074500;2022-11-28T14:11:43;10.10;59.10
6556;DHT22;3311;48.32423000;14.29074500;2022-11-28T14:14:48;10.10;59.20
6556;DHT22;3311;48.32423000;14.29074500;2022-11-28T14:17:32;10.10;59.30
6556;DHT22;3311;48.32423000;14.29074500;2022-11-28T14:20:15;10.10;59.30
6556;DHT22;3311;48.32423000;14.29074500;2022-11-28T14:23:04;10.20;59.40
6556;DHT22;3311;48.32423000;14.29074500;2022-11-28T14:25:40;10.10;59.50
6556;DHT22;3311;48.32423000;14.29074500;2022-11-28T14:28:18;10.20;59.70
6556;DHT22;3311;48.32423000;14.29074500;2022-11-28T14:30:47;10.40;59.50
6556;DHT22;3311;48.32423000;14.29074500;2022-11-28T14:33:18;10.30;59.50
6556;DHT22;3311;48.32423000;14.29074500;2022-11-28T14:36:19;10.40;59.80
6556;DHT22;3311;48.32423000;14.29074500;2022-11-28T14:45:02;10.20;60.10
6556;DHT22;3311;48.32423000;14.29074500;2022-11-28T14:47:31;10.10;60.40
6556;DHT22;3311;48.32423000;14.29074500;2022-11-28T14:56:27;10.00;60.90
6556;DHT22;3311;48.32423000;14.29074500;2022-11-28T14:58:59;10.00;60.80
6556;DHT22;3311;48.32423000;14.29074500;2022-11-28T15:01:43;10.00;60.70
6556;DHT22;3311;48.32423000;14.29074500;2022-11-28T15:04:30;10.10;60.60
6556;DHT22;3311;48.32423000;14.29074500;2022-11-28T15:07:02;10.10;60.40
6556;DHT22;3311;48.32423000;14.29074500;2022-11-28T15:09:34;10.10;60.20
6556;DHT22;3311;48.32423000;14.29074500;2022-11-28T15:12:13;10.10;60.50
6556;DHT22;3311;48.32423000;14.29074500;2022-11-28T15:14:49;10.00;60.50
6556;DHT22;3311;48.32423000;14.29074500;2022-11-28T15:17:20;10.00;60.50
6556;DHT22;3311;48.32423000;14.29074500;2022-11-28T15:19:49;10.10;60.40
6556;DHT22;3311;48.32423000;14.29074500;2022-11-28T15:22:30;10.10;60.20
6556;DHT22;3311;48.32423000;14.29074500;2022-11-28T15:24:58;10.20;60.30
6556;DHT22;3311;48.32423000;14.29074500;2022-11-28T15:27:27;10.00;60.70
6556;DHT22;3311;48.32423000;14.29074500;2022-11-28T15:29:56;9.90;61.90
6556;DHT22;3311;48.32423000;14.29074500;2022-11-28T15:32:26;10.00;60.80
6556;DHT22;3311;48.32423000;14.29074500;2022-11-28T15:34:58;10.20;60.50
6556;DHT22;3311;48.32423000;14.29074500;2022-11-28T15:37:29;10.10;60.30
6556;DHT22;3311;48.32423000;14.29074500;2022-11-28T15:39:57;10.10;60.60
6556;DHT22;3311;48.32423000;14.29074500;2022-11-28T15:42:29;9.90;61.80
6556;DHT22;3311;48.32423000;14.29074500;2022-11-28T15:44:58;10.00;60.80
6556;DHT22;3311;48.32423000;14.29074500;2022-11-28T15:47:27;10.10;60.70
6556;DHT22;3311;48.32423000;14.29074500;2022-11-28T15:49:59;10.00;60.40
6556;DHT22;3311;48.32423000;14.29074500;2022-11-28T15:52:28;10.00;60.70
6556;DHT22;3311;48.32423000;14.29074500;2022-11-28T15:54:57;10.00;60.80
6556;DHT22;3311;48.32423000;14.29074500;2022-11-28T15:57:27;10.00;60.70
6556;DHT22;3311;48.32423000;14.29074500;2022-11-28T15:59:57;9.90;61.80
6556;DHT22;3311;48.32423000;14.29074500;2022-11-28T16:02:27;10.00;60.60
6556;DHT22;3311;48.32423000;14.29074500;2022-11-28T16:05:03;10.10;60.40
6556;DHT22;3311;48.32423000;14.29074500;2022-11-28T16:07:32;9.90;61.70
6556;DHT22;3311;48.32423000;14.29074500;2022-11-28T16:10:03;9.80;62.30
6556;DHT22;3311;48.32423000;14.29074500;2022-11-28T16:12:32;9.70;62.60
6556;DHT22;3311;48.32423000;14.29074500;2022-11-28T16:15:00;9.90;62.30
6556;DHT22;3311;48.32423000;14.29074500;2022-11-28T16:17:31;10.00;61.00
6556;DHT22;3311;48.32423000;14.29074500;2022-11-28T16:20:00;10.00;60.90
6556;DHT22;3311;48.32423000;14.29074500;2022-11-28T16:22:32;9.80;62.20
6556;DHT22;3311;48.32423000;14.29074500;2022-11-28T16:25:16;9.70;62.70
6556;DHT22;3311;48.32423000;14.29074500;2022-11-28T16:27:48;9.80;62.80
6556;DHT22;3311;48.32423000;14.29074500;2022-11-28T16:30:34;9.80;62.80
6556;DHT22;3311;48.32423000;14.29074500;2022-11-28T16:33:32;10.00;61.40
6556;DHT22;3311;48.32423000;14.29074500;2022-11-28T16:35:51;10.00;61.10
6556;DHT22;3311;48.32423000;14.29074500;2022-11-28T16:38:22;10.00;60.90
6556;DHT22;3311;48.32423000;14.29074500;2022-11-28T16:40:49;9.90;62.10
6556;DHT22;3311;48.32423000;14.29074500;2022-11-28T16:43:26;9.90;62.40
6556;DHT22;3311;48.32423000;14.29074500;2022-11-28T16:45:59;9.80;62.50
6556;DHT22;3311;48.32423000;14.29074500;2022-11-28T16:48:29;9.90;62.80
6556;DHT22;3311;48.32423000;14.29074500;2022-11-28T16:54:29;10.00;61.20
6556;DHT22;3311;48.32423000;14.29074500;2022-11-28T16:57:07;9.90;62.30
6556;DHT22;3311;48.32423000;14.29074500;2022-11-28T16:59:37;9.90;62.40
6556;DHT22;3311;48.32423000;14.29074500;2022-11-28T17:02:12;10.00;61.10
6556;DHT22;3311;48.32423000;14.29074500;2022-11-28T17:04:41;10.10;61.00
6556;DHT22;3311;48.32423000;14.29074500;2022-11-28T17:07:10;10.00;61.00
6556;DHT22;3311;48.32423000;14.29074500;2022-11-28T17:09:39;9.90;62.10
6556;DHT22;3311;48.32423000;14.29074500;2022-11-28T17:12:10;10.00;61.20
6556;DHT22;3311;48.32423000;14.29074500;2022-11-28T17:14:42;9.90;62.10
6556;DHT22;3311;48.32423000;14.29074500;2022-11-28T17:17:12;9.90;62.50
6556;DHT22;3311;48.32423000;14.29074500;2022-11-28T17:19:41;10.00;61.60
6556;DHT22;3311;48.32423000;14.29074500;2022-11-28T17:22:13;9.80;62.20
6556;DHT22;3311;48.32423000;14.29074500;2022-11-28T17:24:41;9.80;62.50
6556;DHT22;3311;48.32423000;14.29074500;2022-11-28T17:27:10;9.90;62.30
6556;DHT22;3311;48.32423000;14.29074500;2022-11-28T17:29:38;9.80;62.40
6556;DHT22;3311;48.32423000;14.29074500;2022-11-28T17:32:10;9.80;62.20
6556;DHT22;3311;48.32423000;14.29074500;2022-11-28T17:34:38;9.70;62.50
6556;DHT22;3311;48.32423000;14.29074500;2022-11-28T17:37:07;9.70;62.60
6556;DHT22;3311;48.32423000;14.29074500;2022-11-28T17:39:34;9.70;62.60
6556;DHT22;3311;48.32423000;14.29074500;2022-11-28T17:42:02;9.80;62.40
6556;DHT22;3311;48.32423000;14.29074500;2022-11-28T17:44:31;9.70;63.00
6556;DHT22;3311;48.32423000;14.29074500;2022-11-28T17:47:00;9.70;62.90
6556;DHT22;3311;48.32423000;14.29074500;2022-11-28T17:49:30;9.70;62.60
6556;DHT22;3311;48.32423000;14.29074500;2022-11-28T17:51:57;9.70;62.80
6556;DHT22;3311;48.32423000;14.29074500;2022-11-28T17:54:25;9.60;62.90
6556;DHT22;3311;48.32423000;14.29074500;2022-11-28T17:56:53;9.50;63.10
6556;DHT22;3311;48.32423000;14.29074500;2022-11-28T17:59:23;9.40;63.50
6556;DHT22;3311;48.32423000;14.29074500;2022-11-28T18:01:54;9.40;63.60
6556;DHT22;3311;48.32423000;14.29074500;2022-11-28T18:04:22;9.60;63.50
6556;DHT22;3311;48.32423000;14.29074500;2022-11-28T18:06:51;9.60;63.10
6556;DHT22;3311;48.32423000;14.29074500;2022-11-28T18:09:19;9.60;63.10
6556;DHT22;3311;48.32423000;14.29074500;2022-11-28T18:11:50;9.50;63.00
6556;DHT22;3311;48.32423000;14.29074500;2022-11-28T18:14:17;9.60;63.20
6556;DHT22;3311;48.32423000;14.29074500;2022-11-28T18:16:44;9.70;63.10
6556;DHT22;3311;48.32423000;14.29074500;2022-11-28T18:19:12;9.70;62.90
6556;DHT22;3311;48.32423000;14.29074500;2022-11-28T18:21:40;9.60;63.20
6556;DHT22;3311;48.32423000;14.29074500;2022-11-28T18:24:09;9.50;63.20
6556;DHT22;3311;48.32423000;14.29074500;2022-11-28T18:26:36;9.60;63.30
6556;DHT22;3311;48.32423000;14.29074500;2022-11-28T18:29:05;9.70;63.30
6556;DHT22;3311;48.32423000;14.29074500;2022-11-28T18:31:33;9.60;63.10
6556;DHT22;3311;48.32423000;14.29074500;2022-11-28T18:34:03;9.50;63.20
6556;DHT22;3311;48.32423000;14.29074500;2022-11-28T18:36:34;9.50;63.80
6556;DHT22;3311;48.32423000;14.29074500;2022-11-28T18:39:06;9.60;63.60
6556;DHT22;3311;48.32423000;14.29074500;2022-11-28T18:41:36;9.70;63.30
6556;DHT22;3311;48.32423000;14.29074500;2022-11-28T18:44:04;9.60;63.40
6556;DHT22;3311;48.32423000;14.29074500;2022-11-28T18:46:33;9.70;63.10
6556;DHT22;3311;48.32423000;14.29074500;2022-11-28T18:49:01;9.70;62.90
6556;DHT22;3311;48.32423000;14.29074500;2022-11-28T18:51:30;9.70;63.10
6556;DHT22;3311;48.32423000;14.29074500;2022-11-28T18:54:01;9.50;63.30
6556;DHT22;3311;48.32423000;14.29074500;2022-11-28T18:56:30;9.50;63.60
6556;DHT22;3311;48.32423000;14.29074500;2022-11-28T18:58:59;9.50;63.70
6556;DHT22;3311;48.32423000;14.29074500;2022-11-28T19:01:29;9.50;63.70
6556;DHT22;3311;48.32423000;14.29074500;2022-11-28T19:04:00;9.60;63.40
6556;DHT22;3311;48.32423000;14.29074500;2022-11-28T19:06:30;9.70;63.20
6556;DHT22;3311;48.32423000;14.29074500;2022-11-28T19:09:01;9.70;63.20
6556;DHT22;3311;48.32423000;14.29074500;2022-11-28T19:11:42;9.70;63.10
6556;DHT22;3311;48.32423000;14.29074500;2022-11-28T19:14:22;9.50;63.50
6556;DHT22;3311;48.32423000;14.29074500;2022-11-28T19:16:57;9.50;63.70
6556;DHT22;3311;48.32423000;14.29074500;2022-11-28T19:19:31;9.50;63.70
6556;DHT22;3311;48.32423000;14.29074500;2022-11-28T19:22:09;9.60;63.50
6556;DHT22;3311;48.32423000;14.29074500;2022-11-28T19:24:45;9.50;63.50
6556;DHT22;3311;48.32423000;14.29074500;2022-11-28T19:27:21;9.50;63.70
6556;DHT22;3311;48.32423000;14.29074500;2022-11-28T19:30:08;9.60;63.70
6556;DHT22;3311;48.32423000;14.29074500;2022-11-28T19:32:45;9.60;63.80
6556;DHT22;3311;48.32423000;14.29074500;2022-11-28T19:35:19;9.70;63.60
6556;DHT22;3311;48.32423000;14.29074500;2022-11-28T19:37:59;9.60;63.50
6556;DHT22;3311;48.32423000;14.29074500;2022-11-28T19:40:37;9.50;63.70
6556;DHT22;3311;48.32423000;14.29074500;2022-11-28T19:45:45;9.60;63.90
6556;DHT22;3311;48.32423000;14.29074500;2022-11-28T19:48:24;9.70;63.50
6556;DHT22;3311;48.32423000;14.29074500;2022-11-28T19:50:58;9.80;63.20
6556;DHT22;3311;48.32423000;14.29074500;2022-11-28T19:53:29;9.60;63.50
6556;DHT22;3311;48.32423000;14.29074500;2022-11-28T19:56:03;9.50;63.90
6556;DHT22;3311;48.32423000;14.29074500;2022-11-28T19:58:33;9.60;63.80
6556;DHT22;3311;48.32423000;14.29074500;2022-11-28T20:01:10;9.60;63.60
6556;DHT22;3311;48.32423000;14.29074500;2022-11-28T20:03:50;9.70;64.00
6556;DHT22;3311;48.32423000;14.29074500;2022-11-28T20:06:25;9.70;63.50
6556;DHT22;3311;48.32423000;14.29074500;2022-11-28T20:09:03;9.80;63.30
6556;DHT22;3311;48.32423000;14.29074500;2022-11-28T20:11:45;9.80;63.10
6556;DHT22;3311;48.32423000;14.29074500;2022-11-28T20:14:17;9.80;63.20
6556;DHT22;3311;48.32423000;14.29074500;2022-11-28T20:17:12;9.80;63.00
6556;DHT22;3311;48.32423000;14.29074500;2022-11-28T20:19:45;9.90;63.10
6556;DHT22;3311;48.32423000;14.29074500;2022-11-28T20:22:13;9.80;62.90
6556;DHT22;3311;48.32423000;14.29074500;2022-11-28T20:24:41;9.80;63.20
6556;DHT22;3311;48.32423000;14.29074500;2022-11-28T20:27:12;9.80;63.10
6556;DHT22;3311;48.32423000;14.29074500;2022-11-28T20:29:41;9.80;63.30
6556;DHT22;3311;48.32423000;14.29074500;2022-11-28T20:32:10;9.70;63.50
6556;DHT22;3311;48.32423000;14.29074500;2022-11-28T20:34:38;9.80;63.60
6556;DHT22;3311;48.32423000;14.29074500;2022-11-28T20:37:05;9.90;63.30
6556;DHT22;3311;48.32423000;14.29074500;2022-11-28T20:39:33;9.90;63.00
6556;DHT22;3311;48.32423000;14.29074500;2022-11-28T20:42:04;9.90;63.30
6556;DHT22;3311;48.32423000;14.29074500;2022-11-28T20:44:34;9.90;63.10
6556;DHT22;3311;48.32423000;14.29074500;2022-11-28T20:47:03;9.90;62.90
6556;DHT22;3311;48.32423000;14.29074500;2022-11-28T20:49:35;9.90;63.10
6556;DHT22;3311;48.32423000;14.29074500;2022-11-28T20:52:03;9.90;63.00
6556;DHT22;3311;48.32423000;14.29074500;2022-11-28T20:54:30;9.90;62.90
6556;DHT22;3311;48.32423000;14.29074500;2022-11-28T20:56:58;9.90;62.90
6556;DHT22;3311;48.32423000;14.29074500;2022-11-28T20:59:26;9.80;62.90
6556;DHT22;3311;48.32423000;14.29074500;2022-11-28T21:01:54;9.80;63.30
6556;DHT22;3311;48.32423000;14.29074500;2022-11-28T21:04:23;9.70;63.30
6556;DHT22;3311;48.32423000;14.29074500;2022-11-28T21:06:53;9.80;63.50
6556;DHT22;3311;48.32423000;14.29074500;2022-11-28T21:09:21;9.80;63.30
6556;DHT22;3311;48.32423000;14.29074500;2022-11-28T21:11:50;9.80;63.10
6556;DHT22;3311;48.32423000;14.29074500;2022-11-28T21:14:25;9.80;63.30
6556;DHT22;3311;48.32423000;14.29074500;2022-11-28T21:16:53;9.80;63.30
6556;DHT22;3311;48.32423000;14.29074500;2022-11-28T21:19:20;9.70;63.40
6556;DHT22;3311;48.32423000;14.29074500;2022-11-28T21:21:47;9.70;63.60
6556;DHT22;3311;48.32423000;14.29074500;2022-11-28T21:24:16;9.70;63.60
6556;DHT22;3311;48.32423000;14.29074500;2022-11-28T21:26:43;9.70;63.90
6556;DHT22;3311;48.32423000;14.29074500;2022-11-28T21:29:11;9.70;63.70
6556;DHT22;3311;48.32423000;14.29074500;2022-11-28T21:31:41;9.60;63.80
6556;DHT22;3311;48.32423000;14.29074500;2022-11-28T21:34:10;9.50;64.00
6556;DHT22;3311;48.32423000;14.29074500;2022-11-28T21:36:39;9.50;64.40
6556;DHT22;3311;48.32423000;14.29074500;2022-11-28T21:39:06;9.70;64.00
6556;DHT22;3311;48.32423000;14.29074500;2022-11-28T21:41:35;9.80;63.60
6556;DHT22;3311;48.32423000;14.29074500;2022-11-28T21:44:04;9.70;63.50
6556;DHT22;3311;48.32423000;14.29074500;2022-11-28T21:46:31;9.60;63.50
6556;DHT22;3311;48.32423000;14.29074500;2022-11-28T21:49:00;9.70;63.80
6556;DHT22;3311;48.32423000;14.29074500;2022-11-28T21:51:28;9.80;63.60
6556;DHT22;3311;48.32423000;14.29074500;2022-11-28T21:53:55;9.90;63.40